sensor_id;sensor_type;location;lat;lon;timestamp;temperature;humidity
23251;DHT22;11794;49.730;10.088;2023-03-07T00:00:43;2.40;99.90
23251;DHT22;11794;49.730;10.088;2023-03-07T00:03:12;2.40;99.90
23251;DHT22;11794;49.730;10.088;2023-03-07T00:05:39;2.40;99.90
23251;DHT22;11794;49.730;10.088;2023-03-07T00:08:04;2.30;99.90
23251;DHT22;11794;49.730;10.088;2023-03-07T00:10:30;2.40;99.90
23251;DHT22;11794;49.730;10.088;2023-03-07T00:12:56;2.40;99.90
23251;DHT22;11794;49.730;10.088;2023-03-07T00:15:22;2.40;99.90
23251;DHT22;11794;49.730;10.088;2023-03-07T00:17:47;2.40;99.90
23251;DHT22;11794;49.730;10.088;2023-03-07T00:20:13;2.40;99.90
23251;DHT22;11794;49.730;10.088;2023-03-07T00:22:39;2.40;99.90
23251;DHT22;11794;49.730;10.088;2023-03-07T00:25:05;2.40;99.90
23251;DHT22;11794;49.730;10.088;2023-03-07T00:27:32;2.50;99.90
23251;DHT22;11794;49.730;10.088;2023-03-07T00:29:58;2.50;99.90
23251;DHT22;11794;49.730;10.088;2023-03-07T00:32:25;2.50;99.90
23251;DHT22;11794;49.730;10.088;2023-03-07T00:34:51;2.50;99.90
23251;DHT22;11794;49.730;10.088;2023-03-07T00:37:16;2.50;99.90
23251;DHT22;11794;49.730;10.088;2023-03-07T00:39:42;2.50;99.90
23251;DHT22;11794;49.730;10.088;2023-03-07T00:42:08;2.50;99.90
23251;DHT22;11794;49.730;10.088;2023-03-07T00:44:34;2.50;99.90
23251;DHT22;11794;49.730;10.088;2023-03-07T00:47:00;2.50;99.90
23251;DHT22;11794;49.730;10.088;2023-03-07T00:49:26;2.50;99.90
23251;DHT22;11794;49.730;10.088;2023-03-07T00:51:52;2.40;99.90
23251;DHT22;11794;49.730;10.088;2023-03-07T00:54:17;2.40;99.90
23251;DHT22;11794;49.730;10.088;2023-03-07T00:56:43;2.50;99.90
23251;DHT22;11794;49.730;10.088;2023-03-07T00:59:09;2.40;99.90
23251;DHT22;11794;49.730;10.088;2023-03-07T01:01:35;2.40;99.90
23251;DHT22;11794;49.730;10.088;2023-03-07T01:04:00;2.40;99.90
23251;DHT22;11794;49.730;10.088;2023-03-07T01:06:28;2.40;99.90
23251;DHT22;11794;49.730;10.088;2023-03-07T01:08:56;2.40;99.90
23251;DHT22;11794;49.730;10.088;2023-03-07T01:11:22;2.30;99.90
23251;DHT22;11794;49.730;10.088;2023-03-07T01:13:48;2.30;99.90
23251;DHT22;11794;49.730;10.088;2023-03-07T01:16:17;2.40;99.90
23251;DHT22;11794;49.730;10.088;2023-03-07T01:18:47;2.30;99.90
23251;DHT22;11794;49.730;10.088;2023-03-07T01:21:34;2.40;99.90
23251;DHT22;11794;49.730;10.088;2023-03-07T01:24:00;2.40;99.90
23251;DHT22;11794;49.730;10.088;2023-03-07T01:26:28;2.40;99.90
23251;DHT22;11794;49.730;10.088;2023-03-07T01:28:56;2.40;99.90
23251;DHT22;11794;49.730;10.088;2023-03-07T01:31:22;2.40;99.90
23251;DHT22;11794;49.730;10.088;2023-03-07T01:33:48;2.40;99.90
23251;DHT22;11794;49.730;10.088;2023-03-07T01:36:20;2.40;99.90
23251;DHT22;11794;49.730;10.088;2023-03-07T01:38:47;2.50;99.90
23251;DHT22;11794;49.730;10.088;2023-03-07T01:41:14;2.50;99.90
23251;DHT22;11794;49.730;10.088;2023-03-07T01:43:39;2.50;99.90
23251;DHT22;11794;49.730;10.088;2023-03-07T01:48:49;2.50;99.90
23251;DHT22;11794;49.730;10.088;2023-03-07T01:51:16;2.50;99.90
23251;DHT22;11794;49.730;10.088;2023-03-07T01:53:42;2.50;99.90
23251;DHT22;11794;49.730;10.088;2023-03-07T01:56:08;2.50;99.90
23251;DHT22;11794;49.730;10.088;2023-03-07T01:58:36;2.40;99.90
23251;DHT22;11794;49.730;10.088;2023-03-07T02:01:06;2.40;99.90
23251;DHT22;11794;49.730;10.088;2023-03-07T02:03:37;2.30;99.90
23251;DHT22;11794;49.730;10.088;2023-03-07T02:06:09;2.30;99.90
23251;DHT22;11794;49.730;10.088;2023-03-07T02:08:36;2.20;99.90
23251;DHT22;11794;49.730;10.088;2023-03-07T02:11:04;2.20;99.90
23251;DHT22;11794;49.730;10.088;2023-03-07T02:13:29;2.20;99.90
23251;DHT22;11794;49.730;10.088;2023-03-07T02:15:56;2.30;99.90
23251;DHT22;11794;49.730;10.088;2023-03-07T02:18:26;2.20;99.90
23251;DHT22;11794;49.730;10.088;2023-03-07T02:23:57;2.20;99.90
23251;DHT22;11794;49.730;10.088;2023-03-07T02:26:39;2.20;99.90
23251;DHT22;11794;49.730;10.088;2023-03-07T02:29:05;2.10;99.90
23251;DHT22;11794;49.730;10.088;2023-03-07T02:31:30;2.00;99.90
23251;DHT22;11794;49.730;10.088;2023-03-07T02:33:56;2.10;99.90
23251;DHT22;11794;49.730;10.088;2023-03-07T02:36:24;2.00;99.90
23251;DHT22;11794;49.730;10.088;2023-03-07T02:38:53;2.00;99.90
23251;DHT22;11794;49.730;10.088;2023-03-07T02:41:26;2.00;99.90
23251;DHT22;11794;49.730;10.088;2023-03-07T02:43:52;2.00;99.90
23251;DHT22;11794;49.730;10.088;2023-03-07T02:46:18;1.90;99.90
23251;DHT22;11794;49.730;10.088;2023-03-07T02:48:45;1.90;99.90
23251;DHT22;11794;49.730;10.088;2023-03-07T02:51:10;1.80;99.90
23251;DHT22;11794;49.730;10.088;2023-03-07T02:53:36;1.80;99.90
23251;DHT22;11794;49.730;10.088;2023-03-07T02:56:02;1.80;99.90
23251;DHT22;11794;49.730;10.088;2023-03-07T02:58:28;1.70;99.90
23251;DHT22;11794;49.730;10.088;2023-03-07T03:00:54;1.70;99.90
23251;DHT22;11794;49.730;10.088;2023-03-07T03:03:19;1.60;99.90
23251;DHT22;11794;49.730;10.088;2023-03-07T03:05:45;1.60;99.90
23251;DHT22;11794;49.730;10.088;2023-03-07T03:08:10;1.60;99.90
23251;DHT22;11794;49.730;10.088;2023-03-07T03:10:37;1.60;99.90
23251;DHT22;11794;49.730;10.088;2023-03-07T03:13:02;1.60;99.90
23251;DHT22;11794;49.730;10.088;2023-03-07T03:15:28;1.60;99.90
23251;DHT22;11794;49.730;10.088;2023-03-07T03:17:53;1.60;99.90
23251;DHT22;11794;49.730;10.088;2023-03-07T03:20:19;1.60;99.90
23251;DHT22;11794;49.730;10.088;2023-03-07T03:22:45;1.50;99.90
23251;DHT22;11794;49.730;10.088;2023-03-07T03:25:12;1.50;99.90
23251;DHT22;11794;49.730;10.088;2023-03-07T03:27:38;1.50;99.90
23251;DHT22;11794;49.730;10.088;2023-03-07T03:30:06;1.40;99.90
23251;DHT22;11794;49.730;10.088;2023-03-07T03:32:32;1.40;99.90
23251;DHT22;11794;49.730;10.088;2023-03-07T03:34:58;1.40;99.90
23251;DHT22;11794;49.730;10.088;2023-03-07T03:37:24;1.40;99.90
23251;DHT22;11794;49.730;10.088;2023-03-07T03:39:51;1.50;99.90
23251;DHT22;11794;49.730;10.088;2023-03-07T03:42:17;1.50;99.90
23251;DHT22;11794;49.730;10.088;2023-03-07T03:44:43;1.50;99.90
23251;DHT22;11794;49.730;10.088;2023-03-07T03:47:08;1.50;99.90
23251;DHT22;11794;49.730;10.088;2023-03-07T03:49:34;1.50;99.90
23251;DHT22;11794;49.730;10.088;2023-03-07T03:51:59;1.50;99.90
23251;DHT22;11794;49.730;10.088;2023-03-07T03:54:25;1.50;99.90
23251;DHT22;11794;49.730;10.088;2023-03-07T03:56:52;1.50;99.90
23251;DHT22;11794;49.730;10.088;2023-03-07T03:59:18;1.50;99.90
23251;DHT22;11794;49.730;10.088;2023-03-07T04:01:43;1.60;99.90
23251;DHT22;11794;49.730;10.088;2023-03-07T04:04:09;1.60;99.90
23251;DHT22;11794;49.730;10.088;2023-03-07T04:06:34;1.60;99.90
23251;DHT22;11794;49.730;10.088;2023-03-07T04:09:00;1.60;99.90
23251;DHT22;11794;49.730;10.088;2023-03-07T04:11:27;1.60;99.90
23251;DHT22;11794;49.730;10.088;2023-03-07T04:13:53;1.60;99.90
23251;DHT22;11794;49.730;10.088;2023-03-07T04:16:19;1.60;99.90
23251;DHT22;11794;49.730;10.088;2023-03-07T04:18:46;1.70;99.90
23251;DHT22;11794;49.730;10.088;2023-03-07T04:21:12;1.70;99.90
23251;DHT22;11794;49.730;10.088;2023-03-07T04:23:38;1.70;99.90
23251;DHT22;11794;49.730;10.088;2023-03-07T04:26:05;1.80;99.90
23251;DHT22;11794;49.730;10.088;2023-03-07T04:28:35;1.70;99.90
23251;DHT22;11794;49.730;10.088;2023-03-07T04:31:19;1.70;99.90
23251;DHT22;11794;49.730;10.088;2023-03-07T04:33:45;1.70;99.90
23251;DHT22;11794;49.730;10.088;2023-03-07T04:36:12;1.70;99.90
23251;DHT22;11794;49.730;10.088;2023-03-07T04:38:38;1.80;99.90
23251;DHT22;11794;49.730;10.088;2023-03-07T04:41:05;1.70;99.90
23251;DHT22;11794;49.730;10.088;2023-03-07T04:43:31;1.80;99.90
23251;DHT22;11794;49.730;10.088;2023-03-07T04:45:57;1.80;99.90
23251;DHT22;11794;49.730;10.088;2023-03-07T04:48:22;1.80;99.90
23251;DHT22;11794;49.730;10.088;2023-03-07T04:50:49;1.80;99.90
23251;DHT22;11794;49.730;10.088;2023-03-07T04:53:15;1.80;99.90
23251;DHT22;11794;49.730;10.088;2023-03-07T04:55:41;1.80;99.90
23251;DHT22;11794;49.730;10.088;2023-03-07T04:58:07;1.80;99.90
23251;DHT22;11794;49.730;10.088;2023-03-07T05:00:40;1.80;99.90
23251;DHT22;11794;49.730;10.088;2023-03-07T05:03:07;1.90;99.90
23251;DHT22;11794;49.730;10.088;2023-03-07T05:05:33;1.90;99.90
23251;DHT22;11794;49.730;10.088;2023-03-07T05:07:58;1.90;99.90
23251;DHT22;11794;49.730;10.088;2023-03-07T05:10:24;1.90;99.90
23251;DHT22;11794;49.730;10.088;2023-03-07T05:12:49;1.90;99.90
23251;DHT22;11794;49.730;10.088;2023-03-07T05:15:15;2.00;99.90
23251;DHT22;11794;49.730;10.088;2023-03-07T05:17:40;2.00;99.90
23251;DHT22;11794;49.730;10.088;2023-03-07T05:20:06;2.00;99.90
23251;DHT22;11794;49.730;10.088;2023-03-07T05:22:34;2.00;99.90
23251;DHT22;11794;49.730;10.088;2023-03-07T05:25:00;2.00;99.90
23251;DHT22;11794;49.730;10.088;2023-03-07T05:27:25;2.00;99.90
23251;DHT22;11794;49.730;10.088;2023-03-07T05:29:51;2.00;99.90
23251;DHT22;11794;49.730;10.088;2023-03-07T05:32:16;2.10;99.90
23251;DHT22;11794;49.730;10.088;2023-03-07T05:34:42;2.10;99.90
23251;DHT22;11794;49.730;10.088;2023-03-07T05:37:09;2.10;99.90
23251;DHT22;11794;49.730;10.088;2023-03-07T05:39:34;2.10;99.90
23251;DHT22;11794;49.730;10.088;2023-03-07T05:42:00;2.10;99.90
23251;DHT22;11794;49.730;10.088;2023-03-07T05:44:25;2.10;99.90
23251;DHT22;11794;49.730;10.088;2023-03-07T05:46:51;2.20;99.90
23251;DHT22;11794;49.730;10.088;2023-03-07T05:49:16;2.20;99.90
23251;DHT22;11794;49.730;10.088;2023-03-07T05:51:42;2.20;99.90
23251;DHT22;11794;49.730;10.088;2023-03-07T05:54:07;2.20;99.90
23251;DHT22;11794;49.730;10.088;2023-03-07T05:56:33;2.20;99.90
23251;DHT22;11794;49.730;10.088;2023-03-07T05:58:58;2.20;99.90
23251;DHT22;11794;49.730;10.088;2023-03-07T06:01:24;2.20;99.90
23251;DHT22;11794;49.730;10.088;2023-03-07T06:03:49;2.20;99.90
23251;DHT22;11794;49.730;10.088;2023-03-07T06:06:15;2.20;99.90
23251;DHT22;11794;49.730;10.088;2023-03-07T06:08:40;2.20;99.90
23251;DHT22;11794;49.730;10.088;2023-03-07T06:11:06;2.20;99.90
23251;DHT22;11794;49.730;10.088;2023-03-07T06:13:31;2.30;99.90
23251;DHT22;11794;49.730;10.088;2023-03-07T06:15:57;2.20;99.90
23251;DHT22;11794;49.730;10.088;2023-03-07T06:18:24;2.20;99.90
23251;DHT22;11794;49.730;10.088;2023-03-07T06:21:01;2.30;99.90
23251;DHT22;11794;49.730;10.088;2023-03-07T06:23:29;2.30;99.90
23251;DHT22;11794;49.730;10.088;2023-03-07T06:25:55;2.30;99.90
23251;DHT22;11794;49.730;10.088;2023-03-07T06:28:20;2.30;99.90
23251;DHT22;11794;49.730;10.088;2023-03-07T06:30:46;2.30;99.90
23251;DHT22;11794;49.730;10.088;2023-03-07T06:33:12;2.30;99.90
23251;DHT22;11794;49.730;10.088;2023-03-07T06:35:39;2.40;99.90
23251;DHT22;11794;49.730;10.088;2023-03-07T06:38:05;2.30;99.90
23251;DHT22;11794;49.730;10.088;2023-03-07T06:40:31;2.30;99.90
23251;DHT22;11794;49.730;10.088;2023-03-07T06:42:57;2.40;99.90
23251;DHT22;11794;49.730;10.088;2023-03-07T06:45:22;2.40;99.90
23251;DHT22;11794;49.730;10.088;2023-03-07T06:47:48;2.40;99.90
23251;DHT22;11794;49.730;10.088;2023-03-07T06:50:14;2.40;99.90
23251;DHT22;11794;49.730;10.088;2023-03-07T06:52:39;2.50;99.90
23251;DHT22;11794;49.730;10.088;2023-03-07T06:55:05;2.50;99.90
23251;DHT22;11794;49.730;10.088;2023-03-07T06:57:31;2.50;99.90
23251;DHT22;11794;49.730;10.088;2023-03-07T06:59:59;2.60;99.90
23251;DHT22;11794;49.730;10.088;2023-03-07T07:02:24;2.60;99.90
23251;DHT22;11794;49.730;10.088;2023-03-07T07:04:50;2.70;99.90
23251;DHT22;11794;49.730;10.088;2023-03-07T07:07:16;2.70;99.90
23251;DHT22;11794;49.730;10.088;2023-03-07T07:09:41;2.70;99.90
23251;DHT22;11794;49.730;10.088;2023-03-07T07:12:07;2.80;99.90
23251;DHT22;11794;49.730;10.088;2023-03-07T07:14:32;2.80;99.90
23251;DHT22;11794;49.730;10.088;2023-03-07T07:16:59;2.80;99.90
23251;DHT22;11794;49.730;10.088;2023-03-07T07:19:24;2.90;99.90
23251;DHT22;11794;49.730;10.088;2023-03-07T07:21:51;3.00;99.90
23251;DHT22;11794;49.730;10.088;2023-03-07T07:24:17;3.00;99.90
23251;DHT22;11794;49.730;10.088;2023-03-07T07:26:42;3.10;99.90
23251;DHT22;11794;49.730;10.088;2023-03-07T07:29:08;3.10;99.90
23251;DHT22;11794;49.730;10.088;2023-03-07T07:31:34;3.10;99.90
23251;DHT22;11794;49.730;10.088;2023-03-07T07:33:59;3.10;99.90
23251;DHT22;11794;49.730;10.088;2023-03-07T07:36:25;3.20;99.90
23251;DHT22;11794;49.730;10.088;2023-03-07T07:38:50;3.30;99.90
23251;DHT22;11794;49.730;10.088;2023-03-07T07:41:16;3.30;99.90
23251;DHT22;11794;49.730;10.088;2023-03-07T07:43:44;3.40;99.90
23251;DHT22;11794;49.730;10.088;2023-03-07T07:46:15;3.40;99.90
23251;DHT22;11794;49.730;10.088;2023-03-07T07:48:40;3.50;99.90
23251;DHT22;11794;49.730;10.088;2023-03-07T07:51:06;3.60;99.90
23251;DHT22;11794;49.730;10.088;2023-03-07T07:53:33;3.60;99.90
23251;DHT22;11794;49.730;10.088;2023-03-07T07:55:58;3.70;99.90
23251;DHT22;11794;49.730;10.088;2023-03-07T07:58:24;3.70;99.90
23251;DHT22;11794;49.730;10.088;2023-03-07T08:00:50;3.90;99.90
23251;DHT22;11794;49.730;10.088;2023-03-07T08:03:16;4.00;99.90
23251;DHT22;11794;49.730;10.088;2023-03-07T08:05:46;4.00;99.90
23251;DHT22;11794;49.730;10.088;2023-03-07T08:08:14;4.10;99.90
23251;DHT22;11794;49.730;10.088;2023-03-07T08:10:40;4.20;99.90
23251;DHT22;11794;49.730;10.088;2023-03-07T08:13:11;4.30;99.90
23251;DHT22;11794;49.730;10.088;2023-03-07T08:15:37;4.70;99.90
23251;DHT22;11794;49.730;10.088;2023-03-07T08:18:02;5.00;99.90
23251;DHT22;11794;49.730;10.088;2023-03-07T08:20:28;5.30;99.90
23251;DHT22;11794;49.730;10.088;2023-03-07T08:22:53;5.70;99.90
23251;DHT22;11794;49.730;10.088;2023-03-07T08:25:21;5.90;99.90
23251;DHT22;11794;49.730;10.088;2023-03-07T08:27:48;6.10;99.90
23251;DHT22;11794;49.730;10.088;2023-03-07T08:30:17;6.00;99.90
23251;DHT22;11794;49.730;10.088;2023-03-07T08:32:43;6.50;99.90
23251;DHT22;11794;49.730;10.088;2023-03-07T08:35:09;6.80;99.90
23251;DHT22;11794;49.730;10.088;2023-03-07T08:37:34;6.80;99.90
23251;DHT22;11794;49.730;10.088;2023-03-07T08:40:00;6.40;99.90
23251;DHT22;11794;49.730;10.088;2023-03-07T08:42:25;6.10;99.90
23251;DHT22;11794;49.730;10.088;2023-03-07T08:44:51;6.00;99.90
23251;DHT22;11794;49.730;10.088;2023-03-07T08:47:16;6.40;99.90
23251;DHT22;11794;49.730;10.088;2023-03-07T08:49:42;7.10;99.90
23251;DHT22;11794;49.730;10.088;2023-03-07T08:52:07;7.60;99.90
23251;DHT22;11794;49.730;10.088;2023-03-07T08:54:33;7.70;99.90
23251;DHT22;11794;49.730;10.088;2023-03-07T08:56:59;7.60;99.90
23251;DHT22;11794;49.730;10.088;2023-03-07T08:59:25;7.40;99.90
23251;DHT22;11794;49.730;10.088;2023-03-07T09:01:50;7.40;99.90
23251;DHT22;11794;49.730;10.088;2023-03-07T09:04:16;7.50;99.90
23251;DHT22;11794;49.730;10.088;2023-03-07T09:06:41;7.40;99.90
23251;DHT22;11794;49.730;10.088;2023-03-07T09:09:07;7.50;99.90
23251;DHT22;11794;49.730;10.088;2023-03-07T09:11:32;7.50;99.90
23251;DHT22;11794;49.730;10.088;2023-03-07T09:13:58;7.50;99.90
23251;DHT22;11794;49.730;10.088;2023-03-07T09:16:23;7.10;99.90
23251;DHT22;11794;49.730;10.088;2023-03-07T09:18:49;7.00;99.90
23251;DHT22;11794;49.730;10.088;2023-03-07T09:21:15;7.20;99.90
23251;DHT22;11794;49.730;10.088;2023-03-07T09:23:44;7.40;99.90
23251;DHT22;11794;49.730;10.088;2023-03-07T09:26:09;7.50;99.90
23251;DHT22;11794;49.730;10.088;2023-03-07T09:28:35;7.50;99.90
23251;DHT22;11794;49.730;10.088;2023-03-07T09:31:08;7.60;99.90
23251;DHT22;11794;49.730;10.088;2023-03-07T09:33:34;7.40;99.90
23251;DHT22;11794;49.730;10.088;2023-03-07T09:36:03;7.20;99.90
23251;DHT22;11794;49.730;10.088;2023-03-07T09:38:28;7.30;99.90
23251;DHT22;11794;49.730;10.088;2023-03-07T09:40:54;7.50;99.90
23251;DHT22;11794;49.730;10.088;2023-03-07T09:43:25;7.40;99.90
23251;DHT22;11794;49.730;10.088;2023-03-07T09:46:05;7.40;99.90
23251;DHT22;11794;49.730;10.088;2023-03-07T09:51:23;7.30;99.90
23251;DHT22;11794;49.730;10.088;2023-03-07T09:54:11;7.30;99.90
23251;DHT22;11794;49.730;10.088;2023-03-07T09:56:56;7.70;99.90
23251;DHT22;11794;49.730;10.088;2023-03-07T09:59:41;7.70;99.90
23251;DHT22;11794;49.730;10.088;2023-03-07T10:04:58;7.80;99.90
23251;DHT22;11794;49.730;10.088;2023-03-07T10:07:26;8.20;99.90
23251;DHT22;11794;49.730;10.088;2023-03-07T10:10:10;8.10;99.90
23251;DHT22;11794;49.730;10.088;2023-03-07T10:15:42;7.80;99.90
23251;DHT22;11794;49.730;10.088;2023-03-07T10:21:20;7.90;99.90
23251;DHT22;11794;49.730;10.088;2023-03-07T10:27:08;8.10;99.90
23251;DHT22;11794;49.730;10.088;2023-03-07T10:29:49;7.70;99.90
23251;DHT22;11794;49.730;10.088;2023-03-07T10:32:42;7.70;99.90
23251;DHT22;11794;49.730;10.088;2023-03-07T10:38:10;8.90;99.90
23251;DHT22;11794;49.730;10.088;2023-03-07T10:41:00;8.90;99.90
23251;DHT22;11794;49.730;10.088;2023-03-07T10:43:31;8.80;99.90
23251;DHT22;11794;49.730;10.088;2023-03-07T10:46:02;8.60;99.90
23251;DHT22;11794;49.730;10.088;2023-03-07T10:48:35;8.10;99.90
23251;DHT22;11794;49.730;10.088;2023-03-07T10:51:08;7.80;99.90
23251;DHT22;11794;49.730;10.088;2023-03-07T10:53:37;8.20;99.90
23251;DHT22;11794;49.730;10.088;2023-03-07T10:56:14;8.60;99.90
23251;DHT22;11794;49.730;10.088;2023-03-07T11:01:27;8.40;99.90
23251;DHT22;11794;49.730;10.088;2023-03-07T11:08:56;8.00;99.90
23251;DHT22;11794;49.730;10.088;2023-03-07T11:11:30;8.30;99.90
23251;DHT22;11794;49.730;10.088;2023-03-07T11:16:30;7.80;99.90
23251;DHT22;11794;49.730;10.088;2023-03-07T11:18:56;7.60;99.90
23251;DHT22;11794;49.730;10.088;2023-03-07T11:21:33;7.80;99.90
23251;DHT22;11794;49.730;10.088;2023-03-07T11:24:05;7.90;99.90
23251;DHT22;11794;49.730;10.088;2023-03-07T11:26:33;8.20;99.90
23251;DHT22;11794;49.730;10.088;2023-03-07T11:29:10;9.10;99.90
23251;DHT22;11794;49.730;10.088;2023-03-07T11:31:48;10.30;99.90
23251;DHT22;11794;49.730;10.088;2023-03-07T11:34:52;10.30;99.90
23251;DHT22;11794;49.730;10.088;2023-03-07T11:37:29;9.10;99.90
23251;DHT22;11794;49.730;10.088;2023-03-07T11:43:14;9.00;99.90
23251;DHT22;11794;49.730;10.088;2023-03-07T11:45:57;10.10;99.90
23251;DHT22;11794;49.730;10.088;2023-03-07T11:49:00;10.80;99.90
23251;DHT22;11794;49.730;10.088;2023-03-07T11:56:53;10.20;99.90
23251;DHT22;11794;49.730;10.088;2023-03-07T11:59:47;9.40;99.90
23251;DHT22;11794;49.730;10.088;2023-03-07T12:07:46;9.70;99.90
23251;DHT22;11794;49.730;10.088;2023-03-07T12:10:48;9.90;99.90
23251;DHT22;11794;49.730;10.088;2023-03-07T12:18:47;9.00;99.90
23251;DHT22;11794;49.730;10.088;2023-03-07T12:26:56;8.00;99.90
23251;DHT22;11794;49.730;10.088;2023-03-07T12:29:39;7.80;99.90
23251;DHT22;11794;49.730;10.088;2023-03-07T12:32:12;7.80;99.90
23251;DHT22;11794;49.730;10.088;2023-03-07T12:34:48;7.80;99.90
23251;DHT22;11794;49.730;10.088;2023-03-07T12:37:19;7.40;99.90
23251;DHT22;11794;49.730;10.088;2023-03-07T12:39:56;7.10;99.90
23251;DHT22;11794;49.730;10.088;2023-03-07T12:45:22;7.10;99.90
23251;DHT22;11794;49.730;10.088;2023-03-07T12:48:06;7.00;99.90
23251;DHT22;11794;49.730;10.088;2023-03-07T12:56:17;6.90;99.90
23251;DHT22;11794;49.730;10.088;2023-03-07T13:01:27;7.00;99.90
23251;DHT22;11794;49.730;10.088;2023-03-07T13:04:22;7.00;99.90
23251;DHT22;11794;49.730;10.088;2023-03-07T13:06:50;7.20;99.90
23251;DHT22;11794;49.730;10.088;2023-03-07T13:09:23;7.30;99.90
23251;DHT22;11794;49.730;10.088;2023-03-07T13:12:20;7.30;99.90
23251;DHT22;11794;49.730;10.088;2023-03-07T13:14:53;7.20;99.90
23251;DHT22;11794;49.730;10.088;2023-03-07T13:20:35;6.90;99.90
23251;DHT22;11794;49.730;10.088;2023-03-07T13:28:00;7.00;99.90
23251;DHT22;11794;49.730;10.088;2023-03-07T13:30:32;6.90;99.90
23251;DHT22;11794;49.730;10.088;2023-03-07T13:33:02;6.80;99.90
23251;DHT22;11794;49.730;10.088;2023-03-07T13:37:58;6.70;99.90
23251;DHT22;11794;49.730;10.088;2023-03-07T13:40:52;6.60;99.90
23251;DHT22;11794;49.730;10.088;2023-03-07T13:45:50;6.80;99.90
23251;DHT22;11794;49.730;10.088;2023-03-07T14:01:13;7.60;99.90
23251;DHT22;11794;49.730;10.088;2023-03-07T14:03:44;7.50;99.90
23251;DHT22;11794;49.730;10.088;2023-03-07T14:06:15;7.40;99.90
23251;DHT22;11794;49.730;10.088;2023-03-07T14:08:42;7.10;99.90
23251;DHT22;11794;49.730;10.088;2023-03-07T14:11:26;7.10;99.90
23251;DHT22;11794;49.730;10.088;2023-03-07T14:14:04;7.10;99.90
23251;DHT22;11794;49.730;10.088;2023-03-07T14:20:03;6.80;99.90
23251;DHT22;11794;49.730;10.088;2023-03-07T14:22:51;6.90;99.90
23251;DHT22;11794;49.730;10.088;2023-03-07T14:28:00;6.70;99.90
23251;DHT22;11794;49.730;10.088;2023-03-07T14:30:31;6.60;99.90
23251;DHT22;11794;49.730;10.088;2023-03-07T14:32:57;6.60;99.90
23251;DHT22;11794;49.730;10.088;2023-03-07T14:35:34;6.60;99.90
23251;DHT22;11794;49.730;10.088;2023-03-07T14:38:00;6.70;99.90
23251;DHT22;11794;49.730;10.088;2023-03-07T14:40:32;6.70;99.90
23251;DHT22;11794;49.730;10.088;2023-03-07T14:48:44;6.60;99.90
23251;DHT22;11794;49.730;10.088;2023-03-07T14:51:24;6.70;99.90
23251;DHT22;11794;49.730;10.088;2023-03-07T14:53:51;6.70;99.90
23251;DHT22;11794;49.730;10.088;2023-03-07T14:56:22;6.60;99.90
23251;DHT22;11794;49.730;10.088;2023-03-07T14:58:57;6.60;99.90
23251;DHT22;11794;49.730;10.088;2023-03-07T15:01:29;6.50;99.90
23251;DHT22;11794;49.730;10.088;2023-03-07T15:03:56;6.50;99.90
23251;DHT22;11794;49.730;10.088;2023-03-07T15:06:24;6.40;99.90
23251;DHT22;11794;49.730;10.088;2023-03-07T15:08:51;6.30;99.90
23251;DHT22;11794;49.730;10.088;2023-03-07T15:14:03;6.30;99.90
23251;DHT22;11794;49.730;10.088;2023-03-07T15:16:36;6.30;99.90
23251;DHT22;11794;49.730;10.088;2023-03-07T15:19:09;6.30;99.90
23251;DHT22;11794;49.730;10.088;2023-03-07T15:21:41;6.30;99.90
23251;DHT22;11794;49.730;10.088;2023-03-07T15:24:16;6.20;99.90
23251;DHT22;11794;49.730;10.088;2023-03-07T15:26:48;6.10;99.90
23251;DHT22;11794;49.730;10.088;2023-03-07T15:29:14;6.10;99.90
23251;DHT22;11794;49.730;10.088;2023-03-07T15:31:53;6.00;99.90
23251;DHT22;11794;49.730;10.088;2023-03-07T15:34:29;6.00;99.90
23251;DHT22;11794;49.730;10.088;2023-03-07T15:37:22;5.90;99.90
23251;DHT22;11794;49.730;10.088;2023-03-07T15:42:32;5.90;99.90
23251;DHT22;11794;49.730;10.088;2023-03-07T15:45:00;5.90;99.90
23251;DHT22;11794;49.730;10.088;2023-03-07T15:47:28;5.90;99.90
23251;DHT22;11794;49.730;10.088;2023-03-07T15:49:57;5.90;99.90
23251;DHT22;11794;49.730;10.088;2023-03-07T15:52:36;5.80;99.90
23251;DHT22;11794;49.730;10.088;2023-03-07T15:55:14;5.80;99.90
23251;DHT22;11794;49.730;10.088;2023-03-07T15:58:04;5.80;99.90
23251;DHT22;11794;49.730;10.088;2023-03-07T16:00:38;5.80;99.90
23251;DHT22;11794;49.730;10.088;2023-03-07T16:05:47;5.80;99.90
23251;DHT22;11794;49.730;10.088;2023-03-07T16:08:14;5.70;99.90
23251;DHT22;11794;49.730;10.088;2023-03-07T16:10:52;5.70;99.90
23251;DHT22;11794;49.730;10.088;2023-03-07T16:13:21;5.70;99.90
23251;DHT22;11794;49.730;10.088;2023-03-07T16:16:20;5.70;99.90
23251;DHT22;11794;49.730;10.088;2023-03-07T16:18:46;5.70;99.90
23251;DHT22;11794;49.730;10.088;2023-03-07T16:21:13;5.70;99.90
23251;DHT22;11794;49.730;10.088;2023-03-07T16:23:39;5.70;99.90
23251;DHT22;11794;49.730;10.088;2023-03-07T16:26:05;5.70;99.90
23251;DHT22;11794;49.730;10.088;2023-03-07T16:28:31;5.60;99.90
23251;DHT22;11794;49.730;10.088;2023-03-07T16:30:57;5.60;99.90
23251;DHT22;11794;49.730;10.088;2023-03-07T16:33:23;5.60;99.90
23251;DHT22;11794;49.730;10.088;2023-03-07T16:35:49;5.60;99.90
23251;DHT22;11794;49.730;10.088;2023-03-07T16:38:14;5.50;99.90
23251;DHT22;11794;49.730;10.088;2023-03-07T16:40:42;5.60;99.90
23251;DHT22;11794;49.730;10.088;2023-03-07T16:45:55;5.60;99.90
23251;DHT22;11794;49.730;10.088;2023-03-07T16:48:21;5.50;99.90
23251;DHT22;11794;49.730;10.088;2023-03-07T16:50:47;5.50;99.90
23251;DHT22;11794;49.730;10.088;2023-03-07T16:53:12;5.50;99.90
23251;DHT22;11794;49.730;10.088;2023-03-07T16:55:38;5.50;99.90
23251;DHT22;11794;49.730;10.088;2023-03-07T16:58:05;5.50;99.90
23251;DHT22;11794;49.730;10.088;2023-03-07T17:00:31;5.50;99.90
23251;DHT22;11794;49.730;10.088;2023-03-07T17:02:59;5.50;99.90
23251;DHT22;11794;49.730;10.088;2023-03-07T17:05:27;5.50;99.90
23251;DHT22;11794;49.730;10.088;2023-03-07T17:07:55;5.50;99.90
23251;DHT22;11794;49.730;10.088;2023-03-07T17:10:21;5.50;99.90
23251;DHT22;11794;49.730;10.088;2023-03-07T17:12:48;5.40;99.90
23251;DHT22;11794;49.730;10.088;2023-03-07T17:15:17;5.40;99.90
23251;DHT22;11794;49.730;10.088;2023-03-07T17:17:44;5.40;99.90
23251;DHT22;11794;49.730;10.088;2023-03-07T17:20:15;5.30;99.90
23251;DHT22;11794;49.730;10.088;2023-03-07T17:22:42;5.30;99.90
23251;DHT22;11794;49.730;10.088;2023-03-07T17:25:08;5.30;99.90
23251;DHT22;11794;49.730;10.088;2023-03-07T17:27:37;5.20;99.90
23251;DHT22;11794;49.730;10.088;2023-03-07T17:30:04;5.20;99.90
23251;DHT22;11794;49.730;10.088;2023-03-07T17:32:30;5.10;99.90
23251;DHT22;11794;49.730;10.088;2023-03-07T17:34:55;5.10;99.90
23251;DHT22;11794;49.730;10.088;2023-03-07T17:37:21;5.10;99.90
23251;DHT22;11794;49.730;10.088;2023-03-07T17:39:46;5.00;99.90